Myrtle Beach, South Carolina
Current Conditions -  °F | °C
As of 2:45 PM on Wednesday 17 Dec 2014 (Local Time) from KMYR Reporting Station
Clear Clear  
Wind Chill: 59°   Ceiling: Unl
Heat Index: 59°   Visibility: 10mi
Dew Point: 43°   Wind: 12mph
Humidity: 55%   Direction: 170°S
Pressure: 30.07"   Gusts: NA
Location:  33.69°N, 78.88°W
Report Text: KMYR 171945Z 17010KT 10SM CLR 15/06 A3007
Loading
Personal Weather Stations






























Interactive Weather Map New forecast layout! Learn more

10-Day Weather Forecast

Advertisements
Track Severe Weather on mobile